Millenium Air

Millenium Air Since 1998



 METAR AND TAF INFORMATION
METAR FOR ESMX
ADDS - METARS form results

(0535 UTC 18 April 2021)
Data provider http://aviationweather.gov/metar/data/
 
METAR text: ESMX 180520Z AUTO 02008KT 9999 NCD 06/M01 Q1025
Conditions at: ESMX (VAXJO/KRONOBERG , SE) observed 0520 UTC 18 April 2021
Temperature: 6.0°C (43°F)
Dewpoint: -1.0°C (30°F) [RH = 61%]
Pressure (altimeter): 30.27 inches Hg (1025.0 mb)
Winds: from the NNE (20 degrees) at 9 MPH (8 knots; 4.1 m/s)
Visibility: 6 or more miles (10+ km)
Ceiling: at least 12,000 feet AGL
Clouds: sky clear below 12,000 feet AGL
Weather: no significant weather observed at this time

METAR text: ESMX 180450Z AUTO 01007KT 9999 FEW100/// 05/M01 Q1025
Conditions at: ESMX (VAXJO/KRONOBERG , SE) observed 0450 UTC 18 April 2021
Temperature: 5.0°C (41°F)
Dewpoint: -1.0°C (30°F) [RH = 65%]
Pressure (altimeter): 30.27 inches Hg (1025.0 mb)
Winds: from the N (10 degrees) at 8 MPH (7 knots; 3.6 m/s)
Visibility: 6 or more miles (10+ km)
Ceiling: at least 12,000 feet AGL
Clouds: few clouds at 10000 feet AGL
Weather: no significant weather observed at this time

 AIRPORT MAP

 RUNWAY INFORMATION
Runway 01 Runway length 6900 ft Runway width 148 ft
Runway elevation 610 ft Runway displaced threshold 0 ft Runway heading 13
Runway 19 Runway length 6900 ft Runway width 148 ft
Runway elevation 563 ft Runway displaced threshold 0 ft Runway heading 193

 AIRPORT FREQUENCIES
Type TWR Name TWR Frequency 118.15 MHZ

 AIRPORT NEAR NAVIGATION AIDS
Type NDB Name Vaxjo Frequency 349 KHZ
Type NDB Name Vaxjo Frequency 329 KHZ